createdAt,value
2017-09-30T00:02:15.855Z,8.93
2017-09-30T00:04:42.077Z,7.70
2017-09-30T00:07:08.298Z,10.07
2017-09-30T00:09:34.515Z,8.23
2017-09-30T00:12:00.763Z,7.63
2017-09-30T00:14:26.995Z,7.83
2017-09-30T00:16:53.206Z,12.93
2017-09-30T00:19:19.483Z,8.53
2017-09-30T00:21:45.742Z,10.80
2017-09-30T00:24:12.723Z,8.43
2017-09-30T00:26:38.950Z,9.07
2017-09-30T00:29:05.192Z,8.50
2017-09-30T00:31:31.446Z,10.63
2017-09-30T00:33:58.434Z,10.27
2017-09-30T00:36:24.666Z,8.13
2017-09-30T00:38:50.902Z,8.77
2017-09-30T00:41:17.130Z,8.20
2017-09-30T00:43:43.358Z,10.10
2017-09-30T00:46:09.604Z,9.23
2017-09-30T00:48:35.870Z,9.77
2017-09-30T00:51:02.867Z,9.00
2017-09-30T00:53:29.107Z,9.40
2017-09-30T00:55:55.362Z,9.03
2017-09-30T00:58:22.350Z,10.17
2017-09-30T01:00:48.614Z,8.80
2017-09-30T01:03:14.853Z,9.20
2017-09-30T01:05:41.845Z,9.20
2017-09-30T01:08:08.103Z,10.00
2017-09-30T01:10:34.338Z,8.90
2017-09-30T01:13:00.614Z,10.13
2017-09-30T01:15:26.846Z,34.97
2017-09-30T01:17:53.096Z,35.67
2017-09-30T01:20:19.383Z,11.37
2017-09-30T01:22:46.506Z,14.47
2017-09-30T01:25:13.505Z,17.27
2017-09-30T01:27:39.766Z,19.83
2017-09-30T01:30:06.057Z,23.90
2017-09-30T01:32:32.331Z,24.10
2017-09-30T01:34:59.330Z,23.63
2017-09-30T01:37:25.558Z,18.77
2017-09-30T01:39:51.798Z,17.87
2017-09-30T01:42:18.029Z,18.13
2017-09-30T01:44:44.250Z,18.80
2017-09-30T01:47:10.494Z,15.40
2017-09-30T01:49:36.746Z,18.27
2017-09-30T01:52:02.970Z,16.30
2017-09-30T01:54:29.221Z,17.43
2017-09-30T01:56:56.250Z,18.30
2017-09-30T01:59:22.466Z,16.00
2017-09-30T02:01:48.674Z,18.77
2017-09-30T02:04:14.878Z,13.80
2017-09-30T02:06:41.094Z,14.77
2017-09-30T02:09:07.323Z,12.93
2017-09-30T02:11:33.543Z,12.77
2017-09-30T02:13:59.763Z,10.00
2017-09-30T02:16:25.977Z,10.03
2017-09-30T02:18:52.953Z,12.70
2017-09-30T02:21:19.187Z,9.23
2017-09-30T02:23:45.395Z,8.90
2017-09-30T02:26:11.614Z,9.03
2017-09-30T02:28:37.875Z,8.60
2017-09-30T02:31:04.106Z,8.77
2017-09-30T02:33:30.311Z,8.93
2017-09-30T02:35:57.302Z,9.10
2017-09-30T02:38:23.624Z,9.57
2017-09-30T02:40:49.862Z,7.90
2017-09-30T02:43:16.859Z,7.70
2017-09-30T02:45:43.074Z,6.50
2017-09-30T02:48:09.294Z,8.27
2017-09-30T02:50:35.506Z,9.37
2017-09-30T02:53:02.518Z,10.50
2017-09-30T02:55:28.734Z,10.70
2017-09-30T02:57:54.990Z,14.13
2017-09-30T03:00:21.217Z,16.80
2017-09-30T03:02:47.434Z,11.47
2017-09-30T03:05:13.679Z,12.07
2017-09-30T03:07:39.727Z,11.63
2017-09-30T03:10:05.821Z,12.60
2017-09-30T03:12:31.867Z,13.37
2017-09-30T03:14:57.946Z,18.67
2017-09-30T03:17:24.745Z,21.30
2017-09-30T03:19:50.778Z,13.83
2017-09-30T03:22:16.806Z,19.33
2017-09-30T03:24:42.834Z,18.83
2017-09-30T03:27:08.981Z,19.00
2017-09-30T03:29:35.760Z,14.57
2017-09-30T03:32:01.798Z,18.00
2017-09-30T03:34:27.968Z,14.77
2017-09-30T03:36:54.077Z,21.53
2017-09-30T03:39:20.134Z,22.67
2017-09-30T03:41:46.162Z,16.77
2017-09-30T03:44:12.195Z,19.43
2017-09-30T03:46:38.242Z,16.50
2017-09-30T03:49:04.290Z,21.40
2017-09-30T03:51:30.330Z,22.43
2017-09-30T03:53:57.101Z,21.40
2017-09-30T03:56:23.134Z,22.00
2017-09-30T03:58:49.172Z,21.07
2017-09-30T04:01:15.191Z,15.43
2017-09-30T04:03:41.222Z,16.63
2017-09-30T04:06:07.266Z,17.43
2017-09-30T04:08:33.294Z,18.30
2017-09-30T04:11:00.074Z,15.27
2017-09-30T04:13:30.094Z,17.57
2017-09-30T04:15:56.118Z,16.50
2017-09-30T04:18:22.158Z,20.00
2017-09-30T04:20:48.187Z,20.13
2017-09-30T04:23:14.225Z,16.73
2017-09-30T04:25:40.275Z,18.50
2017-09-30T04:28:07.112Z,20.60
2017-09-30T04:30:33.874Z,16.70
2017-09-30T04:32:59.910Z,24.73
2017-09-30T04:35:25.934Z,20.90
2017-09-30T04:37:51.963Z,20.63
2017-09-30T04:40:18.019Z,20.43
2017-09-30T04:42:44.056Z,21.53
2017-09-30T04:45:10.840Z,23.60
2017-09-30T04:47:36.862Z,20.67
2017-09-30T04:50:02.915Z,16.70
2017-09-30T04:52:28.941Z,17.00
2017-09-30T04:54:54.982Z,15.30
2017-09-30T04:57:21.825Z,18.40
2017-09-30T04:59:48.619Z,17.63
2017-09-30T05:02:14.662Z,21.07
2017-09-30T05:04:40.718Z,17.77
2017-09-30T05:07:07.506Z,15.77
2017-09-30T05:09:33.698Z,17.10
2017-09-30T05:11:59.738Z,14.53
2017-09-30T05:14:25.801Z,12.73
2017-09-30T05:16:51.846Z,19.10
2017-09-30T05:19:18.652Z,14.80
2017-09-30T05:21:44.690Z,19.73
2017-09-30T05:24:10.750Z,14.10
2017-09-30T05:26:36.807Z,12.87
2017-09-30T05:29:03.604Z,12.33
2017-09-30T05:31:30.390Z,17.70
2017-09-30T05:33:57.002Z,15.07
2017-09-30T05:36:23.089Z,12.70
2017-09-30T05:38:49.890Z,13.10
2017-09-30T05:41:15.980Z,10.57
2017-09-30T05:43:42.026Z,10.37
2017-09-30T05:46:08.086Z,10.80
2017-09-30T05:48:34.134Z,10.00
2017-09-30T05:51:00.917Z,11.63
2017-09-30T05:53:26.970Z,11.10
2017-09-30T05:55:53.011Z,10.03
2017-09-30T05:58:19.821Z,11.67
2017-09-30T06:00:45.905Z,11.90
2017-09-30T06:03:11.980Z,10.23
2017-09-30T06:05:38.027Z,9.57
2017-09-30T06:08:04.107Z,8.23
2017-09-30T06:10:30.166Z,10.57
2017-09-30T06:12:56.958Z,9.53
2017-09-30T06:15:24.502Z,6.93
2017-09-30T06:17:50.546Z,7.83
2017-09-30T06:20:16.618Z,6.97
2017-09-30T06:22:43.427Z,7.13
2017-09-30T06:25:09.478Z,8.43
2017-09-30T06:27:36.261Z,9.40
2017-09-30T06:30:02.326Z,8.90
2017-09-30T06:32:29.139Z,11.00
2017-09-30T06:34:56.006Z,9.20
2017-09-30T06:37:22.061Z,9.90
2017-09-30T06:39:48.107Z,9.70
2017-09-30T06:42:14.158Z,10.33
2017-09-30T06:44:40.239Z,10.40
2017-09-30T06:47:06.285Z,8.63
2017-09-30T06:49:33.082Z,11.00
2017-09-30T06:51:59.867Z,12.83
2017-09-30T06:54:25.954Z,9.30
2017-09-30T06:56:52.027Z,9.83
2017-09-30T06:59:18.066Z,10.23
2017-09-30T07:01:44.134Z,14.17
2017-09-30T07:04:10.975Z,10.43
2017-09-30T07:06:37.038Z,9.87
2017-09-30T07:09:03.110Z,9.53
2017-09-30T07:11:29.185Z,9.37
2017-09-30T07:13:55.282Z,9.27
2017-09-30T07:16:21.905Z,8.53
2017-09-30T07:18:48.593Z,9.23
2017-09-30T07:21:15.233Z,8.00
2017-09-30T07:23:42.224Z,9.77
2017-09-30T07:26:08.275Z,12.27
2017-09-30T07:28:34.398Z,7.50
2017-09-30T07:31:00.471Z,8.20
2017-09-30T07:33:27.315Z,7.87
2017-09-30T07:35:54.109Z,7.97
2017-09-30T07:38:20.159Z,8.20
2017-09-30T07:40:46.201Z,6.47
2017-09-30T07:43:13.255Z,6.40
2017-09-30T07:45:39.478Z,9.93
2017-09-30T07:48:05.550Z,5.80
2017-09-30T07:50:31.595Z,7.17
2017-09-30T07:52:57.839Z,6.50
2017-09-30T07:55:24.058Z,8.00
2017-09-30T07:57:50.286Z,7.20
2017-09-30T08:00:16.498Z,8.07
2017-09-30T08:02:43.572Z,6.60
2017-09-30T08:05:09.790Z,7.07
2017-09-30T08:07:36.121Z,6.53
2017-09-30T08:10:02.355Z,7.30
2017-09-30T08:12:28.594Z,7.57
2017-09-30T08:14:55.552Z,7.13
2017-09-30T08:17:21.831Z,7.83
2017-09-30T08:19:48.047Z,9.20
2017-09-30T08:22:14.301Z,6.73
2017-09-30T08:24:40.511Z,7.90
2017-09-30T08:27:06.733Z,7.40
2017-09-30T08:29:33.035Z,7.37
2017-09-30T08:31:59.263Z,9.53
2017-09-30T08:34:25.490Z,7.20
2017-09-30T08:36:51.713Z,7.30
2017-09-30T08:39:17.976Z,10.33
2017-09-30T08:41:44.982Z,8.00
2017-09-30T08:44:11.335Z,9.73
2017-09-30T08:46:37.583Z,8.73
2017-09-30T08:49:03.830Z,8.50
2017-09-30T08:51:30.044Z,6.87
2017-09-30T08:53:56.270Z,8.57
2017-09-30T08:56:22.469Z,7.60
2017-09-30T08:58:48.705Z,6.00
2017-09-30T09:01:15.706Z,7.20
2017-09-30T09:03:41.942Z,5.80
2017-09-30T09:06:08.191Z,11.37
2017-09-30T09:08:34.414Z,8.67
2017-09-30T09:11:00.668Z,7.93
2017-09-30T09:13:27.462Z,10.97
2017-09-30T09:15:54.420Z,8.23
2017-09-30T09:18:20.643Z,8.33
2017-09-30T09:20:46.894Z,8.63
2017-09-30T09:23:13.135Z,12.57
2017-09-30T09:25:39.369Z,8.80
2017-09-30T09:28:05.590Z,11.17
2017-09-30T09:30:31.805Z,8.13
2017-09-30T09:32:58.056Z,9.93
2017-09-30T09:35:24.314Z,11.10
2017-09-30T09:37:50.549Z,10.20
2017-09-30T09:40:16.819Z,10.10
2017-09-30T09:42:43.846Z,12.03
2017-09-30T09:45:10.108Z,15.83
2017-09-30T09:47:36.362Z,13.30
2017-09-30T09:50:03.357Z,9.50
2017-09-30T09:52:29.615Z,10.53
2017-09-30T09:54:55.845Z,11.10
2017-09-30T09:57:22.229Z,10.90
2017-09-30T09:59:48.456Z,9.00
2017-09-30T10:02:14.696Z,10.67
2017-09-30T10:04:40.927Z,8.40
2017-09-30T10:07:07.193Z,7.60
2017-09-30T10:09:34.231Z,7.47
2017-09-30T10:12:00.522Z,8.97
2017-09-30T10:14:26.804Z,7.47
2017-09-30T10:16:53.095Z,8.03
2017-09-30T10:19:19.347Z,6.00
2017-09-30T10:21:46.310Z,6.87
2017-09-30T10:24:12.552Z,6.37
2017-09-30T10:26:38.771Z,5.63
2017-09-30T10:29:05.718Z,6.20
2017-09-30T10:31:31.934Z,6.80
2017-09-30T10:33:58.158Z,6.43
2017-09-30T10:36:24.447Z,7.67
2017-09-30T10:38:50.647Z,8.37
2017-09-30T10:41:16.886Z,7.03
2017-09-30T10:43:43.133Z,6.10
2017-09-30T10:46:09.379Z,7.03
2017-09-30T10:48:36.366Z,8.27
2017-09-30T10:51:02.586Z,6.73
2017-09-30T10:53:28.794Z,8.27
2017-09-30T10:55:55.011Z,9.77
2017-09-30T10:58:21.256Z,8.20
2017-09-30T11:00:47.517Z,8.20
2017-09-30T11:03:13.774Z,7.27
2017-09-30T11:05:40.020Z,6.90
2017-09-30T11:08:07.005Z,8.47
2017-09-30T11:10:33.239Z,8.90
2017-09-30T11:13:00.227Z,6.37
2017-09-30T11:15:27.222Z,7.67
2017-09-30T11:17:53.470Z,8.97
2017-09-30T11:20:19.710Z,7.17
2017-09-30T11:22:46.110Z,7.90
2017-09-30T11:25:12.368Z,7.57
2017-09-30T11:27:38.618Z,7.87
2017-09-30T11:30:05.631Z,7.33
2017-09-30T11:32:31.862Z,7.70
2017-09-30T11:34:58.112Z,7.97
2017-09-30T11:37:25.075Z,10.90
2017-09-30T11:39:51.311Z,9.20
2017-09-30T11:42:17.559Z,8.73
2017-09-30T11:44:43.821Z,10.20
2017-09-30T11:47:10.807Z,11.47
2017-09-30T11:49:37.064Z,8.57
2017-09-30T11:52:03.270Z,10.37
2017-09-30T11:54:29.761Z,6.30
2017-09-30T11:56:56.110Z,6.20
2017-09-30T11:59:23.097Z,5.37
2017-09-30T12:01:49.389Z,5.97
2017-09-30T12:04:15.864Z,5.97
2017-09-30T12:06:43.116Z,6.03
2017-09-30T12:09:09.480Z,5.37
2017-09-30T12:11:35.969Z,5.27
2017-09-30T12:14:02.228Z,5.47
2017-09-30T12:16:28.403Z,5.90
2017-09-30T12:18:54.662Z,6.30
2017-09-30T12:21:20.947Z,7.83
2017-09-30T12:23:46.986Z,5.63
2017-09-30T12:26:13.033Z,6.77
2017-09-30T12:28:39.102Z,9.70
2017-09-30T12:31:05.198Z,8.90
2017-09-30T12:33:31.974Z,7.43
2017-09-30T12:35:58.036Z,6.83
2017-09-30T12:38:24.087Z,5.77
2017-09-30T12:40:50.861Z,6.60
2017-09-30T12:43:16.900Z,7.20
2017-09-30T12:45:42.952Z,7.80
2017-09-30T12:48:09.761Z,7.63
2017-09-30T12:50:35.843Z,7.43
2017-09-30T12:53:02.411Z,12.60
2017-09-30T12:55:28.459Z,5.83
2017-09-30T12:57:54.626Z,5.40
2017-09-30T13:00:20.694Z,4.87
2017-09-30T13:02:46.746Z,5.07
2017-09-30T13:05:12.790Z,7.20
2017-09-30T13:07:39.583Z,5.70
2017-09-30T13:10:05.629Z,5.70
2017-09-30T13:12:31.699Z,8.73
2017-09-30T13:14:57.747Z,4.83
2017-09-30T13:17:23.863Z,2.60
2017-09-30T13:19:49.935Z,6.90
2017-09-30T13:22:16.784Z,3.93
2017-09-30T13:24:43.629Z,4.40
2017-09-30T13:27:10.470Z,5.60
2017-09-30T13:29:36.540Z,3.17
2017-09-30T13:32:02.639Z,4.67
2017-09-30T13:34:28.695Z,5.37
2017-09-30T13:36:54.796Z,6.33
2017-09-30T13:39:20.851Z,5.17
2017-09-30T13:41:46.946Z,4.93
2017-09-30T13:44:13.010Z,4.13
2017-09-30T13:46:39.200Z,4.03
2017-09-30T13:49:05.275Z,6.70
2017-09-30T13:51:31.375Z,3.40
2017-09-30T13:53:57.442Z,3.47
2017-09-30T13:56:23.499Z,6.50
2017-09-30T13:58:49.589Z,8.70
2017-09-30T14:01:15.729Z,4.60
2017-09-30T14:03:41.783Z,4.40
2017-09-30T14:06:07.887Z,7.93
2017-09-30T14:08:33.951Z,6.73
2017-09-30T14:11:00.789Z,7.83
2017-09-30T14:13:26.963Z,8.53
2017-09-30T14:15:53.051Z,10.00
2017-09-30T14:18:19.138Z,9.93
2017-09-30T14:20:45.282Z,7.93
2017-09-30T14:23:11.338Z,11.10
2017-09-30T14:25:37.414Z,11.10
2017-09-30T14:28:03.474Z,13.03
2017-09-30T14:30:30.261Z,14.93
2017-09-30T14:32:56.367Z,7.27
2017-09-30T14:35:22.503Z,15.60
2017-09-30T14:37:48.590Z,13.67
2017-09-30T14:40:14.658Z,13.93
2017-09-30T14:42:40.714Z,7.70
2017-09-30T14:45:07.599Z,10.03
2017-09-30T14:47:33.677Z,10.43
2017-09-30T14:49:59.738Z,10.97
2017-09-30T14:52:25.850Z,11.80
2017-09-30T14:54:52.687Z,10.27
2017-09-30T14:57:19.022Z,9.53
2017-09-30T14:59:45.142Z,10.70
2017-09-30T15:02:11.250Z,12.17
2017-09-30T15:04:38.033Z,14.10
2017-09-30T15:07:04.118Z,13.50
2017-09-30T15:09:30.902Z,8.30
2017-09-30T15:11:57.115Z,12.93
2017-09-30T15:14:23.271Z,14.07
2017-09-30T15:16:49.364Z,15.70
2017-09-30T15:19:15.504Z,13.67
2017-09-30T15:21:41.529Z,12.37
2017-09-30T15:24:07.566Z,13.53
2017-09-30T15:26:33.615Z,13.50
2017-09-30T15:28:59.644Z,10.70
2017-09-30T15:31:26.494Z,17.33
2017-09-30T15:33:53.282Z,13.03
2017-09-30T15:36:19.325Z,12.83
2017-09-30T15:38:45.413Z,10.77
2017-09-30T15:41:12.366Z,8.00
2017-09-30T15:43:38.598Z,6.70
2017-09-30T15:46:04.826Z,6.77
2017-09-30T15:48:31.067Z,5.57
2017-09-30T15:50:57.288Z,9.43
2017-09-30T15:53:23.494Z,6.47
2017-09-30T15:55:49.730Z,9.43
2017-09-30T15:58:15.941Z,9.70
2017-09-30T16:00:42.202Z,7.43
2017-09-30T16:03:08.462Z,9.00
2017-09-30T16:05:34.694Z,7.00
2017-09-30T16:08:00.929Z,8.37
2017-09-30T16:10:27.250Z,6.67
2017-09-30T16:12:53.560Z,9.03
2017-09-30T16:15:23.758Z,8.77
2017-09-30T16:17:50.003Z,13.17
2017-09-30T16:20:38.882Z,11.40
2017-09-30T16:23:05.110Z,15.10
2017-09-30T16:25:31.348Z,12.60
2017-09-30T16:27:57.649Z,17.87
2017-09-30T16:30:23.874Z,16.23
2017-09-30T16:32:50.215Z,11.83
2017-09-30T16:35:17.208Z,12.30
2017-09-30T16:37:43.430Z,18.47
2017-09-30T16:40:09.661Z,20.33
2017-09-30T16:42:35.887Z,24.83
2017-09-30T16:45:02.107Z,13.83
2017-09-30T16:47:28.333Z,22.33
2017-09-30T16:49:54.564Z,12.70
2017-09-30T16:52:20.782Z,18.40
2017-09-30T16:54:47.726Z,10.53
2017-09-30T16:57:13.930Z,10.30
2017-09-30T16:59:40.906Z,7.70
2017-09-30T17:02:07.182Z,11.43
2017-09-30T17:04:33.419Z,9.40
2017-09-30T17:07:00.419Z,8.20
2017-09-30T17:09:26.691Z,12.90
2017-09-30T17:11:52.926Z,16.10
2017-09-30T17:14:19.254Z,17.10
2017-09-30T17:16:45.580Z,15.37
2017-09-30T17:19:11.797Z,12.33
2017-09-30T17:21:38.031Z,10.87
2017-09-30T17:24:04.259Z,11.30
2017-09-30T17:26:30.482Z,11.30
2017-09-30T17:28:56.701Z,11.27
2017-09-30T17:31:22.983Z,16.50
2017-09-30T17:33:49.270Z,11.20
2017-09-30T17:36:15.540Z,14.17
2017-09-30T17:38:41.808Z,9.77
2017-09-30T17:41:08.071Z,10.67
2017-09-30T17:43:34.318Z,15.17
2017-09-30T17:46:00.558Z,11.63
2017-09-30T17:48:26.823Z,13.43
2017-09-30T17:50:53.374Z,11.67
2017-09-30T17:53:19.602Z,9.77
2017-09-30T17:55:46.591Z,11.20
2017-09-30T17:58:12.826Z,11.50
2017-09-30T18:00:39.083Z,9.87
2017-09-30T18:03:05.307Z,9.83
2017-09-30T18:05:31.518Z,11.70
2017-09-30T18:07:57.746Z,13.10
2017-09-30T18:10:23.962Z,11.77
2017-09-30T18:12:50.214Z,16.93
2017-09-30T18:15:16.440Z,10.37
2017-09-30T18:17:42.769Z,11.57
2017-09-30T18:20:08.985Z,10.73
2017-09-30T18:22:35.994Z,12.97
2017-09-30T18:25:02.220Z,8.57
2017-09-30T18:27:28.436Z,11.63
2017-09-30T18:29:55.400Z,10.20
2017-09-30T18:32:21.610Z,12.20
2017-09-30T18:34:47.849Z,15.53
2017-09-30T18:37:14.077Z,21.67
2017-09-30T18:39:40.318Z,20.83
2017-09-30T18:42:06.524Z,17.20
2017-09-30T18:44:32.762Z,19.27
2017-09-30T18:46:58.990Z,17.73
2017-09-30T18:49:25.234Z,14.37
2017-09-30T18:51:51.476Z,18.67
2017-09-30T18:54:17.719Z,17.47
2017-09-30T18:56:44.021Z,21.80
2017-09-30T18:59:10.266Z,16.00
2017-09-30T19:01:36.499Z,19.37
2017-09-30T19:04:02.744Z,20.53
2017-09-30T19:06:28.959Z,21.13
2017-09-30T19:08:55.198Z,17.40
2017-09-30T19:11:22.186Z,20.50
2017-09-30T19:13:48.430Z,18.63
2017-09-30T19:16:14.703Z,19.27
2017-09-30T19:18:41.657Z,14.93
2017-09-30T19:21:08.646Z,16.03
2017-09-30T19:23:34.879Z,17.73
2017-09-30T19:26:01.322Z,15.80
2017-09-30T19:28:27.571Z,18.90
2017-09-30T19:30:54.546Z,16.33
2017-09-30T19:33:20.785Z,20.83
2017-09-30T19:35:47.007Z,20.77
2017-09-30T19:38:13.815Z,22.70
2017-09-30T19:40:40.214Z,18.00
2017-09-30T19:43:06.457Z,15.77
2017-09-30T19:45:32.706Z,25.90
2017-09-30T19:47:59.698Z,21.67
2017-09-30T19:50:25.942Z,19.03
2017-09-30T19:52:52.192Z,22.03
2017-09-30T19:55:19.165Z,18.40
2017-09-30T19:57:45.585Z,19.13
2017-09-30T20:00:12.863Z,17.87
2017-09-30T20:02:39.187Z,19.27
2017-09-30T20:05:05.790Z,19.43
2017-09-30T20:07:32.762Z,22.00
2017-09-30T20:09:59.013Z,20.10
2017-09-30T20:12:25.250Z,20.40
2017-09-30T20:14:51.491Z,21.40
2017-09-30T20:17:17.767Z,24.67
2017-09-30T20:19:44.022Z,28.63
2017-09-30T20:22:10.297Z,27.43
2017-09-30T20:24:37.286Z,25.83
2017-09-30T20:27:03.543Z,31.40
2017-09-30T20:29:29.811Z,29.33
2017-09-30T20:31:56.054Z,28.57
2017-09-30T20:34:22.358Z,31.03
2017-09-30T20:36:48.647Z,27.67
2017-09-30T20:39:14.897Z,30.87
2017-09-30T20:41:41.875Z,35.87
2017-09-30T20:44:08.107Z,33.60
2017-09-30T20:46:34.383Z,33.33
2017-09-30T20:49:00.718Z,38.00
2017-09-30T20:51:26.970Z,35.13
2017-09-30T20:53:53.241Z,38.90
2017-09-30T20:56:19.490Z,34.20
2017-09-30T20:58:45.727Z,34.80
2017-09-30T21:01:11.973Z,38.20
2017-09-30T21:03:38.959Z,35.83
2017-09-30T21:06:05.231Z,38.17
2017-09-30T21:08:32.239Z,35.37
2017-09-30T21:10:58.488Z,32.30
2017-09-30T21:13:24.764Z,38.67
2017-09-30T21:15:50.999Z,35.27
2017-09-30T21:18:17.315Z,35.03
2017-09-30T21:20:43.564Z,39.57
2017-09-30T21:23:09.786Z,36.03
2017-09-30T21:25:36.093Z,33.93
2017-09-30T21:28:02.328Z,33.40
2017-09-30T21:30:28.582Z,31.53
2017-09-30T21:32:54.955Z,36.23
2017-09-30T21:35:21.268Z,43.07
2017-09-30T21:37:47.640Z,37.67
2017-09-30T21:40:13.910Z,39.97
2017-09-30T21:42:40.145Z,45.43
2017-09-30T21:45:06.394Z,44.37
2017-09-30T21:47:32.659Z,34.03
2017-09-30T21:49:58.913Z,43.87
2017-09-30T21:52:25.182Z,46.43
2017-09-30T21:54:51.467Z,44.03
2017-09-30T21:57:17.750Z,41.77
2017-09-30T21:59:44.000Z,35.03
2017-09-30T22:02:10.295Z,42.20
2017-09-30T22:04:37.278Z,41.83
2017-09-30T22:07:03.503Z,38.10
2017-09-30T22:09:29.743Z,36.77
2017-09-30T22:11:55.970Z,45.80
2017-09-30T22:14:22.199Z,45.73
2017-09-30T22:16:48.423Z,38.80
2017-09-30T22:19:14.651Z,45.97
2017-09-30T22:21:40.881Z,48.57
2017-09-30T22:24:07.112Z,42.27
2017-09-30T22:26:33.341Z,42.07
2017-09-30T22:28:59.580Z,46.10
2017-09-30T22:31:26.531Z,46.07
2017-09-30T22:33:52.815Z,41.07
2017-09-30T22:36:19.085Z,45.27
2017-09-30T22:38:45.303Z,49.87
2017-09-30T22:41:11.560Z,54.13
2017-09-30T22:43:37.772Z,40.57
2017-09-30T22:46:04.114Z,43.67
2017-09-30T22:48:30.351Z,47.13
2017-09-30T22:50:57.352Z,44.23
2017-09-30T22:53:23.574Z,42.27
2017-09-30T22:55:49.839Z,48.63
2017-09-30T22:58:16.151Z,41.60
2017-09-30T23:00:42.364Z,44.87
2017-09-30T23:03:08.618Z,44.90
2017-09-30T23:05:34.938Z,45.23
2017-09-30T23:08:01.170Z,44.23
2017-09-30T23:10:27.491Z,44.63
2017-09-30T23:12:53.738Z,44.10
2017-09-30T23:15:19.978Z,47.60
2017-09-30T23:17:46.206Z,42.53
2017-09-30T23:20:13.171Z,39.20
2017-09-30T23:22:39.450Z,44.27
2017-09-30T23:25:05.694Z,42.07
2017-09-30T23:27:31.914Z,39.77
2017-09-30T23:29:58.158Z,47.57
2017-09-30T23:32:25.171Z,46.43
2017-09-30T23:34:51.393Z,46.77
2017-09-30T23:37:17.622Z,45.40
2017-09-30T23:39:43.854Z,38.00
2017-09-30T23:42:10.074Z,48.23
2017-09-30T23:44:36.337Z,41.47
2017-09-30T23:47:03.302Z,53.73
2017-09-30T23:49:29.530Z,45.80
2017-09-30T23:51:55.760Z,41.93
2017-09-30T23:54:21.801Z,40.30
2017-09-30T23:56:48.621Z,46.73
2017-09-30T23:59:14.686Z,40.80
